Time;durP1;ratioP1;P1;durP2;ratioP2;P2;SDS_P1;SDS_P2;PMS_P1;PMS_P2;Temp;Humidity;BMP_temperature;BMP_pressure;BME280_temperature;BME280_humidity;BME280_pressure;Samples;Min_cycle;Max_cycle;Signal;HPM_P1;HPM_P2
2024/01/27 00:01:17;;;;;;;462.67;198.57;;;;;;;-148.24;100.00;61531.34;4925794;28;20982;-58
2024/01/27 00:03:42;;;;;;;491.52;204.90;;;;;;;-148.24;100.00;61531.34;4919164;29;20031;-58
2024/01/27 00:06:08;;;;;;;454.58;198.88;;;;;;;-148.24;100.00;61531.34;4925112;28;20059;-58
2024/01/27 00:08:33;;;;;;;503.52;202.93;;;;;;;-148.24;100.00;61531.34;4922019;29;20043;-58
2024/01/27 00:10:58;;;;;;;449.90;197.52;;;;;;;-148.24;100.00;61531.34;4924421;28;20523;-59
2024/01/27 00:13:24;;;;;;;454.13;198.48;;;;;;;-148.24;100.00;61531.34;4924528;29;20070;-58
2024/01/27 00:15:51;;;;;;;474.60;198.85;;;;;;;-148.24;100.00;61531.34;4921680;28;20123;-58
2024/01/27 00:18:16;;;;;;;444.05;199.00;;;;;;;-148.24;100.00;61531.34;4926203;29;20016;-58
2024/01/27 00:20:42;;;;;;;482.30;200.82;;;;;;;-148.24;100.00;61531.34;4923492;28;20606;-59
2024/01/27 00:23:08;;;;;;;457.98;198.65;;;;;;;-148.24;100.00;61531.34;4923925;29;20664;-58
2024/01/27 00:25:33;;;;;;;490.02;201.60;;;;;;;-148.24;100.00;61531.34;4924681;28;20047;-59
2024/01/27 00:27:58;;;;;;;431.05;197.52;;;;;;;-148.24;100.00;61531.34;4925055;28;20035;-58
2024/01/27 00:30:24;;;;;;;472.83;200.18;;;;;;;-148.24;100.00;61531.34;4923639;28;20023;-59
2024/01/27 00:32:49;;;;;;;417.77;196.40;;;;;;;-148.24;100.00;61531.34;4923117;29;20473;-57
2024/01/27 00:35:15;;;;;;;423.58;200.45;;;;;;;-148.24;100.00;61531.34;4924254;28;20101;-58
2024/01/27 00:37:41;;;;;;;473.10;199.95;;;;;;;-148.24;100.00;61531.34;4925993;29;20509;-59
2024/01/27 00:40:10;;;;;;;454.25;199.70;;;;;;;-148.24;100.00;61531.34;4923236;28;20466;-58
2024/01/27 00:42:36;;;;;;;494.13;205.18;;;;;;;-148.24;100.00;61531.34;4923196;29;20388;-58
2024/01/27 00:45:03;;;;;;;425.50;198.15;;;;;;;-148.24;100.00;61531.34;4923290;29;20015;-59
2024/01/27 00:47:28;;;;;;;479.13;201.63;;;;;;;-148.24;100.00;61531.34;4921367;28;20055;-57
2024/01/27 00:49:54;;;;;;;448.80;201.95;;;;;;;-148.24;100.00;61531.34;4922086;29;20040;-58
2024/01/27 00:52:20;;;;;;;417.67;196.75;;;;;;;-148.24;100.00;61531.34;4925750;28;20043;-58
2024/01/27 00:54:45;;;;;;;458.00;199.35;;;;;;;-148.24;100.00;61531.34;4927401;29;20035;-58
2024/01/27 00:57:10;;;;;;;407.10;200.90;;;;;;;-148.24;100.00;61531.34;4923038;28;20071;-58
2024/01/27 00:59:36;;;;;;;509.35;205.75;;;;;;;-148.24;100.00;61531.34;4923886;29;20024;-58
2024/01/27 01:02:01;;;;;;;450.42;200.55;;;;;;;-148.24;100.00;61531.34;4924453;28;20054;-59
2024/01/27 01:04:27;;;;;;;473.27;203.52;;;;;;;-148.24;100.00;61531.34;4918556;29;20098;-59
2024/01/27 01:06:52;;;;;;;502.17;204.30;;;;;;;-148.24;100.00;61531.34;4915468;28;20063;-60
2024/01/27 01:09:17;;;;;;;462.90;201.82;;;;;;;-148.24;100.00;61531.34;4920089;29;20099;-59
2024/01/27 01:11:43;;;;;;;510.77;207.25;;;;;;;-148.24;100.00;61531.34;4917406;29;20063;-58
2024/01/27 01:14:08;;;;;;;471.25;203.13;;;;;;;-148.24;100.00;61531.34;4918271;29;20031;-59
2024/01/27 01:16:33;;;;;;;524.92;206.90;;;;;;;-148.24;100.00;61531.34;4918608;28;20471;-58
2024/01/27 01:18:59;;;;;;;500.85;207.13;;;;;;;-148.24;100.00;61531.34;4916228;29;20046;-57
2024/01/27 01:21:24;;;;;;;512.38;208.07;;;;;;;-148.24;100.00;61531.34;4921218;28;20032;-59
2024/01/27 01:23:50;;;;;;;421.60;203.93;;;;;;;-148.24;100.00;61531.34;4921136;28;20031;-58
2024/01/27 01:26:15;;;;;;;440.90;204.25;;;;;;;-148.24;100.00;61531.34;4917616;28;20044;-57
2024/01/27 01:28:40;;;;;;;536.30;207.75;;;;;;;-148.24;100.00;61531.34;4917606;29;20028;-58
2024/01/27 01:31:07;;;;;;;445.50;204.50;;;;;;;-148.24;100.00;61531.34;4919511;28;20143;-58
2024/01/27 01:33:33;;;;;;;479.83;209.20;;;;;;;-148.24;100.00;61531.34;4918431;28;20050;-58
2024/01/27 01:35:58;;;;;;;454.00;207.20;;;;;;;-148.24;100.00;61531.34;4919821;28;20419;-59
2024/01/27 01:38:23;;;;;;;447.15;204.98;;;;;;;-148.24;100.00;61531.34;4919013;29;20028;-58
2024/01/27 01:40:49;;;;;;;447.02;206.07;;;;;;;-148.24;100.00;61531.34;4917320;29;20040;-58
2024/01/27 01:43:14;;;;;;;430.55;206.15;;;;;;;-148.24;100.00;61531.34;4918659;29;20255;-58
2024/01/27 01:45:39;;;;;;;464.98;206.77;;;;;;;-148.24;100.00;61531.34;4917443;29;20209;-58
2024/01/27 01:48:05;;;;;;;425.10;204.15;;;;;;;-148.24;100.00;61531.34;4919035;29;20438;-59
2024/01/27 01:50:32;;;;;;;523.50;212.60;;;;;;;-148.24;100.00;61531.34;4918713;28;20460;-59
2024/01/27 01:52:58;;;;;;;424.70;208.23;;;;;;;-148.24;100.00;61531.34;4918968;29;20064;-59
2024/01/27 01:55:23;;;;;;;423.75;208.32;;;;;;;-148.24;100.00;61531.34;4916382;28;20020;-59
2024/01/27 01:57:49;;;;;;;482.23;212.45;;;;;;;-148.24;100.00;61531.34;4918095;29;20413;-58
2024/01/27 02:00:15;;;;;;;454.70;211.63;;;;;;;-148.24;100.00;61531.34;4916719;29;20023;-59
2024/01/27 02:02:44;;;;;;;495.52;213.85;;;;;;;-148.24;100.00;61531.34;4919524;29;20412;-57
2024/01/27 02:05:10;;;;;;;438.60;211.80;;;;;;;-148.24;100.00;61531.34;4919382;28;20507;-58
2024/01/27 02:07:35;;;;;;;511.02;212.00;;;;;;;-148.24;100.00;61531.34;4915598;29;20024;-59
2024/01/27 02:10:01;;;;;;;466.88;211.20;;;;;;;-148.24;100.00;61531.34;4917333;29;20578;-60
2024/01/27 02:12:27;;;;;;;464.17;212.48;;;;;;;-148.24;100.00;61531.34;4920147;28;21585;-58
2024/01/27 02:14:52;;;;;;;431.08;209.68;;;;;;;-148.24;100.00;61531.34;4919223;29;20035;-59
2024/01/27 02:17:17;;;;;;;445.17;211.02;;;;;;;-148.24;100.00;61531.34;4916167;28;20061;-59
2024/01/27 02:19:43;;;;;;;478.45;213.95;;;;;;;-148.24;100.00;61531.34;4922451;29;20023;-59
2024/01/27 02:22:08;;;;;;;447.52;212.25;;;;;;;-148.24;100.00;61531.34;4923325;29;20088;-57
2024/01/27 02:24:34;;;;;;;515.05;216.65;;;;;;;-148.24;100.00;61531.34;4921831;29;20059;-58
2024/01/27 02:26:59;;;;;;;462.85;214.18;;;;;;;-148.24;100.00;61531.34;4921800;28;20156;-59
2024/01/27 02:29:27;;;;;;;477.45;213.45;;;;;;;-148.24;100.00;61531.34;4923329;29;20046;-58
2024/01/27 02:31:52;;;;;;;464.80;210.00;;;;;;;-148.24;100.00;61531.34;4921198;28;20036;-60
2024/01/27 02:34:18;;;;;;;459.40;210.40;;;;;;;-148.24;100.00;61531.34;4919978;29;20035;-59
2024/01/27 02:36:43;;;;;;;520.83;215.50;;;;;;;-148.24;100.00;61531.34;4915894;28;20071;-58
2024/01/27 02:39:09;;;;;;;494.40;212.82;;;;;;;-148.24;100.00;61531.34;4911427;29;20107;-58
2024/01/27 02:41:38;;;;;;;513.30;215.02;;;;;;;-148.24;100.00;61531.34;4916835;28;20060;-59
2024/01/27 02:44:04;;;;;;;446.70;212.05;;;;;;;-148.24;100.00;61531.34;4923577;29;20364;-58
2024/01/27 02:46:30;;;;;;;496.77;213.98;;;;;;;-148.24;100.00;61531.34;4917548;28;20033;-58
2024/01/27 02:48:55;;;;;;;454.90;214.05;;;;;;;-148.24;100.00;61531.34;4922394;29;20094;-58
2024/01/27 02:51:20;;;;;;;443.30;212.98;;;;;;;-148.24;100.00;61531.34;4921518;28;20035;-59
2024/01/27 02:53:46;;;;;;;516.08;216.70;;;;;;;-148.24;100.00;61531.34;4923190;28;20035;-59
2024/01/27 02:56:11;;;;;;;444.65;212.68;;;;;;;-148.24;100.00;61531.34;4920476;28;20266;-59
2024/01/27 02:58:36;;;;;;;494.08;213.82;;;;;;;-148.24;100.00;61531.34;4921142;29;20098;-59
2024/01/27 03:01:02;;;;;;;463.80;213.68;;;;;;;-148.24;100.00;61531.34;4921963;28;20068;-59
2024/01/27 03:03:28;;;;;;;425.90;212.55;;;;;;;-148.24;100.00;61531.34;4920827;29;20122;-58
2024/01/27 03:05:54;;;;;;;387.02;208.75;;;;;;;-148.24;100.00;61531.34;4919380;28;20050;-58
2024/01/27 03:08:19;;;;;;;433.13;210.90;;;;;;;-148.24;100.00;61531.34;4921161;29;20031;-59
2024/01/27 03:10:44;;;;;;;476.88;211.77;;;;;;;-148.24;100.00;61531.34;4917534;29;20047;-58
2024/01/27 03:13:10;;;;;;;408.27;210.52;;;;;;;-148.24;100.00;61531.34;4922413;29;20030;-58
2024/01/27 03:15:35;;;;;;;476.08;211.70;;;;;;;-148.24;100.00;61531.34;4920226;28;20068;-59
2024/01/27 03:18:00;;;;;;;421.80;207.30;;;;;;;-148.24;100.00;61531.34;4924082;29;20471;-58
2024/01/27 03:20:27;;;;;;;417.73;211.52;;;;;;;-148.24;100.00;61531.34;4923075;28;20646;-59
2024/01/27 03:22:52;;;;;;;453.10;214.93;;;;;;;-148.24;100.00;61531.34;4920002;29;20111;-59
2024/01/27 03:25:18;;;;;;;446.38;215.77;;;;;;;-148.24;100.00;61531.34;4920023;28;20646;-59
2024/01/27 03:27:44;;;;;;;481.30;215.68;;;;;;;-148.24;100.00;61531.34;4917479;29;20112;-59
2024/01/27 03:30:10;;;;;;;457.05;214.00;;;;;;;-148.24;100.00;61531.34;4918708;28;20315;-59
2024/01/27 03:32:35;;;;;;;462.58;214.70;;;;;;;-148.24;100.00;61531.34;4923602;28;20363;-58
2024/01/27 03:35:01;;;;;;;397.75;210.48;;;;;;;-148.24;100.00;61531.34;4920621;29;20032;-58
2024/01/27 03:37:27;;;;;;;479.10;216.30;;;;;;;-148.24;100.00;61531.34;4918454;28;20066;-58
2024/01/27 03:39:52;;;;;;;387.42;209.40;;;;;;;-148.24;100.00;61531.34;4921517;29;21558;-59
2024/01/27 03:42:18;;;;;;;390.08;212.48;;;;;;;-148.24;100.00;61531.34;4918762;28;20040;-58
2024/01/27 03:44:43;;;;;;;521.85;216.57;;;;;;;-148.24;100.00;61531.34;4919534;29;20087;-59
2024/01/27 03:47:08;;;;;;;409.50;209.35;;;;;;;-148.24;100.00;61531.34;4921557;28;20481;-58
2024/01/27 03:49:34;;;;;;;413.40;212.35;;;;;;;-148.24;100.00;61531.34;4920198;29;20261;-58
2024/01/27 03:51:59;;;;;;;426.95;211.85;;;;;;;-148.24;100.00;61531.34;4923045;29;20114;-57
2024/01/27 03:54:25;;;;;;;421.67;211.02;;;;;;;-148.24;100.00;61531.34;4921870;29;20114;-59
2024/01/27 03:56:50;;;;;;;476.55;213.40;;;;;;;-148.24;100.00;61531.34;4920334;28;20036;-59
2024/01/27 03:59:15;;;;;;;483.35;216.07;;;;;;;-148.24;100.00;61531.34;4920504;29;20121;-58
2024/01/27 04:01:41;;;;;;;491.92;218.85;;;;;;;-148.24;100.00;61531.34;4915932;28;20091;-59
2024/01/27 04:04:06;;;;;;;386.33;211.60;;;;;;;-148.24;100.00;61531.34;4917944;29;20335;-59
2024/01/27 04:06:39;;;;;;;491.98;215.40;;;;;;;-148.24;100.00;61531.34;4921719;29;20412;-59
2024/01/27 04:09:08;;;;;;;455.33;212.55;;;;;;;-148.24;100.00;61531.34;4920039;29;20047;-59
2024/01/27 04:11:34;;;;;;;441.00;212.73;;;;;;;-148.24;100.00;61531.34;4917916;28;20515;-59
2024/01/27 04:13:59;;;;;;;428.05;216.18;;;;;;;-148.24;100.00;61531.34;4921152;29;20047;-58
2024/01/27 04:16:25;;;;;;;419.20;214.55;;;;;;;-148.24;100.00;61531.34;4919486;28;20506;-59
2024/01/27 04:18:50;;;;;;;468.20;218.20;;;;;;;-148.24;100.00;61531.34;4917695;29;20030;-59
2024/01/27 04:21:15;;;;;;;410.00;219.02;;;;;;;-148.24;100.00;61531.34;4917819;29;20115;-58
2024/01/27 04:23:41;;;;;;;478.20;213.65;;;;;;;-148.24;100.00;61531.34;4920106;29;20131;-59
2024/01/27 04:26:06;;;;;;;407.50;211.35;;;;;;;-148.24;100.00;61531.34;4922180;28;20043;-58
2024/01/27 04:28:31;;;;;;;455.35;213.95;;;;;;;-148.24;100.00;61531.34;4919682;29;20208;-58
2024/01/27 04:30:57;;;;;;;414.20;209.00;;;;;;;-148.24;100.00;61531.34;4916536;28;20135;-58
2024/01/27 04:33:22;;;;;;;397.40;210.77;;;;;;;-148.24;100.00;61531.34;4920043;29;20032;-58
2024/01/27 04:35:47;;;;;;;446.63;211.43;;;;;;;-148.24;100.00;61531.34;4915784;28;20467;-58
2024/01/27 04:38:13;;;;;;;404.33;210.02;;;;;;;-148.24;100.00;61531.34;4921019;29;20106;-59
2024/01/27 04:40:38;;;;;;;473.48;212.35;;;;;;;-148.24;100.00;61531.34;4917792;28;20078;-58
2024/01/27 04:43:03;;;;;;;413.17;207.60;;;;;;;-148.24;100.00;61531.34;4920776;29;20046;-59
2024/01/27 04:45:29;;;;;;;436.75;213.45;;;;;;;-148.24;100.00;61531.34;4920933;28;20055;-58
2024/01/27 04:47:54;;;;;;;496.90;214.10;;;;;;;-148.24;100.00;61531.34;4919176;29;20114;-59
2024/01/27 04:50:20;;;;;;;471.08;214.13;;;;;;;-148.24;100.00;61531.34;4915007;28;20020;-59
2024/01/27 04:52:46;;;;;;;463.10;211.10;;;;;;;-148.24;100.00;61531.34;4918555;29;20134;-58
2024/01/27 04:55:12;;;;;;;386.58;209.00;;;;;;;-148.24;100.00;61531.34;4918339;29;20052;-59
2024/01/27 04:57:37;;;;;;;483.17;213.32;;;;;;;-148.24;100.00;61531.34;4919626;29;20130;-60
2024/01/27 05:00:10;;;;;;;403.02;218.02;;;;;;;-148.24;100.00;61531.34;4918736;29;20074;-59
2024/01/27 05:02:35;;;;;;;483.33;216.00;;;;;;;-148.24;100.00;61531.34;4916217;28;20122;-59
2024/01/27 05:05:02;;;;;;;412.73;220.98;;;;;;;-148.24;100.00;61531.34;4920351;29;20528;-58
2024/01/27 05:07:28;;;;;;;384.70;212.07;;;;;;;-148.24;100.00;61531.34;4922893;28;20515;-58
2024/01/27 05:09:53;;;;;;;480.92;215.60;;;;;;;-148.24;100.00;61531.34;4916864;29;20514;-58
2024/01/27 05:12:18;;;;;;;397.75;206.00;;;;;;;-148.24;100.00;61531.34;4920464;28;20038;-59
2024/01/27 05:14:45;;;;;;;494.85;212.32;;;;;;;-148.24;100.00;61531.34;4917903;29;20179;-59
2024/01/27 05:17:10;;;;;;;445.35;210.82;;;;;;;-148.24;100.00;61531.34;4917747;29;20039;-59
2024/01/27 05:19:35;;;;;;;464.17;231.60;;;;;;;-148.24;100.00;61531.34;4917919;29;20412;-60
2024/01/27 05:22:01;;;;;;;396.67;208.80;;;;;;;-148.24;100.00;61531.34;4917639;28;20054;-59
2024/01/27 05:24:26;;;;;;;440.65;214.88;;;;;;;-148.24;100.00;61531.34;4919651;29;20503;-59
2024/01/27 05:26:52;;;;;;;475.55;215.20;;;;;;;-148.24;100.00;61531.34;4918976;28;20035;-59
2024/01/27 05:29:17;;;;;;;403.27;210.55;;;;;;;-148.24;100.00;61531.34;4921942;29;20024;-58
2024/01/27 05:31:43;;;;;;;520.63;215.43;;;;;;;-148.24;100.00;61531.34;4917344;28;20130;-58
2024/01/27 05:34:12;;;;;;;377.63;212.25;;;;;;;-148.24;100.00;61531.34;4918669;29;20484;-58
2024/01/27 05:36:38;;;;;;;433.35;211.50;;;;;;;-148.24;100.00;61531.34;4915711;28;20047;-58
2024/01/27 05:39:04;;;;;;;460.45;212.30;;;;;;;-148.24;100.00;61531.34;4917933;29;20019;-60
2024/01/27 05:41:30;;;;;;;429.60;212.25;;;;;;;-148.24;100.00;61531.34;4919839;28;20102;-62
2024/01/27 05:43:57;;;;;;;498.02;215.13;;;;;;;-148.24;100.00;61531.34;4916907;28;20225;-61
2024/01/27 05:46:24;;;;;;;444.52;213.32;;;;;;;-148.24;100.00;61531.34;4918096;29;20503;-61
2024/01/27 05:48:50;;;;;;;466.25;213.50;;;;;;;-148.24;100.00;61531.34;4921619;29;20032;-62
2024/01/27 05:51:16;;;;;;;398.17;210.27;;;;;;;-148.24;100.00;61531.34;4918460;28;20277;-61
2024/01/27 05:53:41;;;;;;;460.20;217.00;;;;;;;-148.24;100.00;61531.34;4919203;29;20057;-61
2024/01/27 05:56:06;;;;;;;404.23;211.15;;;;;;;-148.24;100.00;61531.34;4923693;29;20127;-61
2024/01/27 05:58:32;;;;;;;432.63;213.10;;;;;;;-148.24;100.00;61531.34;4924012;29;20539;-60
2024/01/27 06:00:57;;;;;;;491.08;216.25;;;;;;;-148.24;100.00;61531.34;4922016;28;20456;-61
2024/01/27 06:03:22;;;;;;;367.15;208.35;;;;;;;-148.24;100.00;61531.34;4921595;29;20030;-61
2024/01/27 06:05:48;;;;;;;466.80;212.52;;;;;;;-148.24;100.00;61531.34;4921154;29;20047;-61
2024/01/27 06:08:13;;;;;;;447.30;211.85;;;;;;;-148.24;100.00;61531.34;4923504;29;20027;-60
2024/01/27 06:10:38;;;;;;;433.35;213.85;;;;;;;-148.24;100.00;61531.34;4923281;28;20123;-62
2024/01/27 06:13:04;;;;;;;418.55;214.77;;;;;;;-148.24;100.00;61531.34;4920178;29;20523;-62
2024/01/27 06:15:30;;;;;;;453.60;214.40;;;;;;;-148.24;100.00;61531.34;4920519;29;20730;-60
2024/01/27 06:17:57;;;;;;;488.13;217.82;;;;;;;-148.24;100.00;61531.34;4920789;29;20625;-61
2024/01/27 06:20:22;;;;;;;407.45;211.55;;;;;;;-148.24;100.00;61531.34;4917978;28;20329;-61
2024/01/27 06:22:48;;;;;;;490.23;216.77;;;;;;;-148.24;100.00;61531.34;4923232;29;20071;-60
2024/01/27 06:25:14;;;;;;;385.88;212.85;;;;;;;-148.24;100.00;61531.34;4920725;28;20023;-62
2024/01/27 06:27:41;;;;;;;424.08;217.73;;;;;;;-148.24;100.00;61531.34;4924779;29;20020;-62
2024/01/27 06:30:07;;;;;;;426.92;213.93;;;;;;;-148.24;100.00;61531.34;4917645;28;20027;-61
2024/01/27 06:32:33;;;;;;;422.95;211.73;;;;;;;-148.24;100.00;61531.34;4917067;28;20083;-62
2024/01/27 06:34:58;;;;;;;457.30;212.05;;;;;;;-148.24;100.00;61531.34;4921534;29;20044;-62
2024/01/27 06:37:23;;;;;;;420.73;213.25;;;;;;;-148.24;100.00;61531.34;4922561;29;20028;-59
2024/01/27 06:39:49;;;;;;;441.40;211.98;;;;;;;-148.24;100.00;61531.34;4920681;29;20857;-59
2024/01/27 06:42:14;;;;;;;411.23;210.73;;;;;;;-148.24;100.00;61531.34;4920230;28;20040;-61
2024/01/27 06:44:39;;;;;;;442.42;211.82;;;;;;;-148.24;100.00;61531.34;4923955;29;20309;-60
2024/01/27 06:47:05;;;;;;;375.67;206.52;;;;;;;-148.24;100.00;61531.34;4919863;28;20047;-61
2024/01/27 06:49:30;;;;;;;445.60;209.10;;;;;;;-148.24;100.00;61531.34;4919690;29;20043;-59
2024/01/27 06:51:55;;;;;;;512.20;218.00;;;;;;;-148.24;100.00;61531.34;4918902;28;20043;-62
2024/01/27 06:54:21;;;;;;;374.80;209.88;;;;;;;-148.24;100.00;61531.34;4919226;28;20066;-60
2024/01/27 06:56:46;;;;;;;445.75;210.45;;;;;;;-148.24;100.00;61531.34;4915307;29;20546;-59
2024/01/27 06:59:12;;;;;;;448.67;213.00;;;;;;;-148.24;100.00;61531.34;4917723;29;20063;-60
2024/01/27 07:01:37;;;;;;;414.02;212.15;;;;;;;-148.24;100.00;61531.34;4922532;28;20040;-60
2024/01/27 07:04:02;;;;;;;386.17;212.32;;;;;;;-148.24;100.00;61531.34;4922430;29;20099;-60
2024/01/27 07:06:28;;;;;;;471.38;215.65;;;;;;;-148.24;100.00;61531.34;4919669;28;20126;-60
2024/01/27 07:08:53;;;;;;;460.65;214.88;;;;;;;-148.24;100.00;61531.34;4923296;29;20036;-59
2024/01/27 07:11:18;;;;;;;386.23;212.98;;;;;;;-148.24;100.00;61531.34;4922615;28;20171;-61
2024/01/27 07:13:44;;;;;;;452.45;214.95;;;;;;;-148.24;100.00;61531.34;4917329;29;20558;-60
2024/01/27 07:16:09;;;;;;;403.35;210.38;;;;;;;-148.24;100.00;61531.34;4919680;29;20404;-60
2024/01/27 07:18:35;;;;;;;439.83;211.15;;;;;;;-148.24;100.00;61531.34;4924645;29;20031;-61
2024/01/27 07:21:01;;;;;;;524.97;218.32;;;;;;;-148.24;100.00;61531.34;4918557;28;20115;-60
2024/01/27 07:23:27;;;;;;;377.90;209.02;;;;;;;-148.24;100.00;61531.34;4925509;28;20412;-60
2024/01/27 07:25:53;;;;;;;461.45;216.50;;;;;;;-148.24;100.00;61531.34;4919832;29;20508;-60
2024/01/27 07:28:18;;;;;;;441.80;216.52;;;;;;;-148.24;100.00;61531.34;4915871;29;20050;-60
2024/01/27 07:30:44;;;;;;;409.85;215.68;;;;;;;-148.24;100.00;61531.34;4918455;28;20482;-62
2024/01/27 07:33:09;;;;;;;372.33;212.77;;;;;;;-148.24;100.00;61531.34;4921002;29;20024;-60
2024/01/27 07:35:35;;;;;;;490.92;225.73;;;;;;;-148.24;100.00;61531.34;4918591;28;20040;-59
2024/01/27 07:38:01;;;;;;;989.90;271.00;;;;;;;-148.24;100.00;61531.34;4920033;29;20047;-58
2024/01/27 07:40:26;;;;;;;537.80;236.45;;;;;;;-148.24;100.00;61531.34;4920634;28;20131;-59
2024/01/27 07:42:51;;;;;;;877.60;248.00;;;;;;;-148.24;100.00;61531.34;4916841;29;20028;-60
2024/01/27 07:45:17;;;;;;;684.78;242.07;;;;;;;-148.24;100.00;61531.34;4920289;29;20042;-58
2024/01/27 07:47:42;;;;;;;667.20;232.73;;;;;;;-148.24;100.00;61531.34;4921094;29;20135;-60
2024/01/27 07:50:09;;;;;;;514.45;225.60;;;;;;;-148.24;100.00;61531.34;4904879;28;20586;-60
2024/01/27 07:52:35;;;;;;;515.85;227.90;;;;;;;-148.24;100.00;61531.34;4919524;28;20158;-60
2024/01/27 07:55:00;;;;;;;564.35;230.90;;;;;;;-148.24;100.00;61531.34;4918974;29;20030;-59
2024/01/27 07:57:26;;;;;;;507.08;222.45;;;;;;;-148.24;100.00;61531.34;4919864;28;20031;-58
2024/01/27 07:59:51;;;;;;;557.33;225.15;;;;;;;-148.24;100.00;61531.34;4919008;29;20056;-60
2024/01/27 08:02:16;;;;;;;473.02;222.95;;;;;;;-148.24;100.00;61531.34;4917507;29;20407;-60
2024/01/27 08:04:42;;;;;;;536.30;223.65;;;;;;;-148.24;100.00;61531.34;4922600;29;20404;-60
2024/01/27 08:07:09;;;;;;;468.85;219.95;;;;;;;-148.24;100.00;61531.34;4918760;29;20237;-61
2024/01/27 08:09:36;;;;;;;545.60;218.73;;;;;;;-148.24;100.00;61531.34;4915628;29;20490;-59
2024/01/27 08:12:01;;;;;;;579.88;224.95;;;;;;;-148.24;100.00;61531.34;4916502;28;20392;-60
2024/01/27 08:14:30;;;;;;;470.98;218.98;;;;;;;-148.24;100.00;61531.34;4920346;28;20028;-60
2024/01/27 08:16:58;;;;;;;558.25;222.73;;;;;;;-148.24;100.00;61531.34;4917309;28;20044;-62
2024/01/27 08:19:24;;;;;;;517.10;220.02;;;;;;;-148.24;100.00;61531.34;4917157;29;20330;-61
2024/01/27 08:21:49;;;;;;;496.75;218.70;;;;;;;-148.24;100.00;61531.34;4919830;28;20051;-61
2024/01/27 08:24:15;;;;;;;466.83;216.63;;;;;;;-148.24;100.00;61531.34;4920056;29;20066;-63
2024/01/27 08:26:42;;;;;;;506.88;221.80;;;;;;;-148.24;100.00;61531.34;4919874;28;20038;-62
2024/01/27 08:29:08;;;;;;;481.35;219.63;;;;;;;-148.24;100.00;61531.34;4919685;29;20032;-61
2024/01/27 08:31:33;;;;;;;496.08;219.98;;;;;;;-148.24;100.00;61531.34;4922117;29;20032;-60
2024/01/27 08:33:58;;;;;;;543.25;224.88;;;;;;;-148.24;100.00;61531.34;4917671;29;20041;-62
2024/01/27 08:36:24;;;;;;;445.98;222.45;;;;;;;-148.24;100.00;61531.34;4915726;28;20275;-62
2024/01/27 08:38:49;;;;;;;481.02;218.90;;;;;;;-148.24;100.00;61531.34;4918930;29;20054;-62
2024/01/27 08:41:14;;;;;;;456.08;217.30;;;;;;;-148.24;100.00;61531.34;4922862;28;20343;-62
2024/01/27 08:43:40;;;;;;;490.88;217.30;;;;;;;-148.24;100.00;61531.34;4920416;29;20023;-62
2024/01/27 08:46:11;;;;;;;563.88;222.95;;;;;;;-148.24;100.00;61531.34;4917641;29;20082;-61
2024/01/27 08:48:36;;;;;;;491.02;218.02;;;;;;;-148.24;100.00;61531.34;4916956;29;20495;-62
2024/01/27 08:51:01;;;;;;;541.72;222.85;;;;;;;-148.24;100.00;61531.34;4917812;28;20375;-62
2024/01/27 08:53:27;;;;;;;490.48;215.95;;;;;;;-148.24;100.00;61531.34;4914941;29;20050;-62
2024/01/27 08:55:52;;;;;;;509.17;220.13;;;;;;;-148.24;100.00;61531.34;4917750;29;20051;-61
2024/01/27 08:58:17;;;;;;;423.70;215.05;;;;;;;-148.24;100.00;61531.34;4917711;29;20400;-62
2024/01/27 09:00:43;;;;;;;472.88;216.65;;;;;;;-148.24;100.00;61531.34;4917231;28;20035;-62
2024/01/27 09:03:08;;;;;;;411.67;212.10;;;;;;;-148.24;100.00;61531.34;4912543;29;21243;-62
2024/01/27 09:05:33;;;;;;;439.48;215.63;;;;;;;-148.24;100.00;61531.34;4923696;28;20040;-62
2024/01/27 09:07:59;;;;;;;562.47;224.55;;;;;;;-148.24;100.00;61531.34;4919768;29;20126;-61
2024/01/27 09:10:24;;;;;;;417.25;213.82;;;;;;;-148.24;100.00;61531.34;4922034;29;20090;-61
2024/01/27 09:12:49;;;;;;;404.63;216.50;;;;;;;-148.24;100.00;61531.34;4922065;29;20028;-61
2024/01/27 09:15:15;;;;;;;405.58;218.00;;;;;;;-148.24;100.00;61531.34;4923069;29;20396;-61
2024/01/27 09:17:42;;;;;;;464.08;217.10;;;;;;;-148.24;100.00;61531.34;4916127;29;20031;-63
2024/01/27 09:20:08;;;;;;;466.33;215.07;;;;;;;-148.24;100.00;61531.34;4919476;28;20034;-62
2024/01/27 09:22:34;;;;;;;462.75;218.05;;;;;;;-148.24;100.00;61531.34;4921709;28;20102;-61
2024/01/27 09:24:59;;;;;;;559.75;224.98;;;;;;;-148.24;100.00;61531.34;4922033;29;20153;-61
2024/01/27 09:27:24;;;;;;;415.58;213.82;;;;;;;-148.24;100.00;61531.34;4921146;28;20042;-62
2024/01/27 09:29:50;;;;;;;418.80;218.45;;;;;;;-148.24;100.00;61531.34;4921662;29;20400;-61
2024/01/27 09:32:15;;;;;;;451.35;222.10;;;;;;;-148.24;100.00;61531.34;4916919;29;20082;-63
2024/01/27 09:34:40;;;;;;;443.45;218.85;;;;;;;-148.24;100.00;61531.34;4920522;29;20035;-59
2024/01/27 09:37:06;;;;;;;554.22;223.93;;;;;;;-148.24;100.00;61531.34;4919995;29;20091;-61
2024/01/27 09:39:31;;;;;;;527.65;228.13;;;;;;;-148.24;100.00;61531.34;4920728;29;20028;-60
2024/01/27 09:42:00;;;;;;;486.00;217.32;;;;;;;-148.24;100.00;61531.34;4920575;28;20045;-60
2024/01/27 09:44:27;;;;;;;434.30;215.43;;;;;;;-148.24;100.00;61531.34;4920077;29;20056;-59
2024/01/27 09:46:54;;;;;;;461.20;221.50;;;;;;;-148.24;100.00;61531.34;4919294;29;20123;-60
2024/01/27 09:49:20;;;;;;;447.33;218.60;;;;;;;-148.24;100.00;61531.34;4922081;29;20086;-60
2024/01/27 09:51:46;;;;;;;476.15;227.25;;;;;;;-148.24;100.00;61531.34;4920786;28;20051;-60
2024/01/27 09:54:11;;;;;;;541.22;235.70;;;;;;;-148.24;100.00;61531.34;4918077;29;20042;-61
2024/01/27 09:56:37;;;;;;;445.50;214.18;;;;;;;-148.24;100.00;61531.34;4923165;29;20154;-61
2024/01/27 09:59:05;;;;;;;579.38;227.77;;;;;;;-148.24;100.00;61531.34;4922948;29;20577;-63
2024/01/27 10:01:33;;;;;;;490.42;215.77;;;;;;;-148.24;100.00;61531.34;4920495;28;20657;-63
2024/01/27 10:03:59;;;;;;;538.33;220.55;;;;;;;-148.24;100.00;61531.34;4920291;29;20045;-62
2024/01/27 10:06:25;;;;;;;477.48;214.50;;;;;;;-148.24;100.00;61531.34;4924886;28;20047;-66
2024/01/27 10:08:55;;;;;;;441.00;211.32;;;;;;;-148.24;100.00;61531.34;4923721;29;20039;-63
2024/01/27 10:11:22;;;;;;;469.33;211.73;;;;;;;-148.24;100.00;61531.34;4922205;28;20040;-65
2024/01/27 10:13:55;;;;;;;503.10;218.65;;;;;;;-148.24;100.00;61531.34;4918782;29;20552;-62
2024/01/27 10:16:21;;;;;;;456.48;208.48;;;;;;;-148.24;100.00;61531.34;4920359;29;20508;-64
2024/01/27 10:18:46;;;;;;;485.08;203.82;;;;;;;-148.24;100.00;61531.34;4919571;29;20040;-63
2024/01/27 10:21:13;;;;;;;498.83;137.75;;;;;;;-148.24;100.00;61531.34;4914774;28;20045;-64
2024/01/27 10:23:40;;;;;;;427.45;133.02;;;;;;;-148.24;100.00;61531.34;4920582;29;20537;-64
2024/01/27 10:26:05;;;;;;;597.80;187.38;;;;;;;-148.24;100.00;61531.34;4917966;28;20036;-63
2024/01/27 10:28:30;;;;;;;601.92;250.55;;;;;;;-148.24;100.00;61531.34;4922569;29;20427;-63
2024/01/27 10:31:10;;;;;;;632.10;309.70;;;;;;;-148.24;100.00;61531.34;4916672;29;20347;-64
2024/01/27 10:33:35;;;;;;;715.60;345.73;;;;;;;-148.24;100.00;61531.34;4918980;29;20460;-65